METAR Data

Data at: 0847 UTC 17 Nov 2018

METAR for:KISP (Islip/Macarthur Arpt, NY, US)
Text:KISP 170756Z AUTO 25010KT 10SM BKN039 03/M01 A2999 RMK AO2 SLP157 T00281006
Temperature: 2.8°C ( 37°F)
Dewpoint: -0.6°C ( 31°F) [RH = 78%]
Pressure (altimeter):29.99 inches Hg (1015.7 mb) [Sea level pressure: 1015.7 mb]
Winds:from the WSW (250 degrees) at 12 MPH (10 knots; 5.1 m/s)
Visibility:10 or more sm (16+ km)
Ceiling:3900 feet AGL
Clouds: broken clouds at 3900 feet AGL
QC Flag:automated observation with no human augmentation